createdAt,value
2019-03-17T00:00:12.430Z,81.35
2019-03-17T00:01:19.599Z,80.33
2019-03-17T00:02:12.404Z,81.21
2019-03-17T00:03:12.392Z,80.39
2019-03-17T00:04:12.379Z,81.45
2019-03-17T00:05:12.369Z,82.34
2019-03-17T00:06:12.364Z,83.09
2019-03-17T00:07:12.498Z,82.07
2019-03-17T00:08:12.340Z,80.94
2019-03-17T00:09:12.327Z,81.96
2019-03-17T00:10:12.319Z,81.86
2019-03-17T00:11:12.299Z,83.29
2019-03-17T00:12:12.328Z,82.03
2019-03-17T00:13:12.292Z,80.94
2019-03-17T00:14:12.269Z,82.48
2019-03-17T00:15:12.257Z,80.74
2019-03-17T00:16:12.266Z,80.43
2019-03-17T00:17:12.252Z,82.37
2019-03-17T00:18:12.247Z,80.43
2019-03-17T00:19:12.234Z,80.53
2019-03-17T00:20:12.207Z,81.35
2019-03-17T00:21:12.220Z,81.45
2019-03-17T00:22:12.186Z,80.90
2019-03-17T00:23:12.174Z,80.60
2019-03-17T00:24:12.180Z,80.94
2019-03-17T00:25:12.167Z,82.07
2019-03-17T00:26:12.146Z,80.33
2019-03-17T00:27:12.128Z,80.94
2019-03-17T00:28:12.126Z,81.04
2019-03-17T00:29:12.104Z,82.17
2019-03-17T00:30:12.118Z,82.89
2019-03-17T00:31:23.337Z,81.56
2019-03-17T00:32:13.093Z,81.65
2019-03-17T00:33:12.058Z,82.78
2019-03-17T00:34:12.048Z,83.70
2019-03-17T00:35:12.082Z,82.27
2019-03-17T00:36:12.030Z,82.17
2019-03-17T00:37:12.037Z,80.63
2019-03-17T00:38:12.007Z,80.12
2019-03-17T00:39:12.009Z,82.27
2019-03-17T00:40:11.978Z,82.89
2019-03-17T00:41:11.972Z,81.35
2019-03-17T00:42:11.977Z,81.65
2019-03-17T00:43:11.973Z,81.15
2019-03-17T00:44:11.934Z,81.24
2019-03-17T00:45:12.082Z,82.27
2019-03-17T00:46:11.914Z,82.54
2019-03-17T00:47:11.978Z,82.68
2019-03-17T00:48:11.896Z,81.86
2019-03-17T00:49:11.910Z,81.76
2019-03-17T00:50:11.869Z,82.07
2019-03-17T00:51:11.860Z,80.63
2019-03-17T00:52:11.845Z,80.74
2019-03-17T00:53:11.834Z,79.61
2019-03-17T00:54:11.851Z,80.53
2019-03-17T00:55:11.813Z,83.09
2019-03-17T00:56:11.815Z,81.90
2019-03-17T00:57:11.790Z,83.09
2019-03-17T00:58:11.785Z,83.64
2019-03-17T00:59:11.790Z,82.00
2019-03-17T01:00:11.917Z,81.59
2019-03-17T01:01:11.757Z,82.71
2019-03-17T01:02:11.748Z,83.70
2019-03-17T01:03:11.850Z,82.78
2019-03-17T01:04:11.735Z,81.18
2019-03-17T01:05:11.725Z,81.08
2019-03-17T01:06:11.723Z,83.23
2019-03-17T01:07:11.684Z,83.44
2019-03-17T01:08:11.665Z,82.27
2019-03-17T01:09:11.653Z,83.13
2019-03-17T01:10:11.674Z,82.89
2019-03-17T01:11:11.635Z,82.21
2019-03-17T01:12:11.622Z,82.51
2019-03-17T01:13:11.626Z,82.00
2019-03-17T01:14:11.600Z,82.21
2019-03-17T01:15:11.594Z,82.82
2019-03-17T01:16:11.601Z,83.95
2019-03-17T01:17:11.576Z,81.79
2019-03-17T01:18:11.554Z,81.18
2019-03-17T01:19:11.549Z,81.08
2019-03-17T01:20:11.533Z,80.67
2019-03-17T01:21:11.523Z,81.08
2019-03-17T01:22:11.533Z,81.08
2019-03-17T01:23:11.497Z,81.49
2019-03-17T01:24:11.550Z,80.67
2019-03-17T01:25:11.476Z,81.38
2019-03-17T01:26:11.468Z,81.79
2019-03-17T01:27:11.542Z,84.36
2019-03-17T01:28:11.440Z,80.98
2019-03-17T01:29:11.449Z,81.49
2019-03-17T01:30:11.444Z,82.21
2019-03-17T01:31:11.412Z,82.62
2019-03-17T01:32:11.394Z,82.86
2019-03-17T01:33:11.384Z,82.21
2019-03-17T01:34:11.405Z,83.27
2019-03-17T01:35:11.363Z,82.45
2019-03-17T01:36:11.355Z,82.31
2019-03-17T01:37:11.351Z,82.24
2019-03-17T01:38:11.335Z,82.45
2019-03-17T01:39:11.330Z,84.29
2019-03-17T01:40:11.329Z,83.88
2019-03-17T01:41:11.295Z,84.70
2019-03-17T01:42:11.298Z,82.96
2019-03-17T01:43:11.300Z,82.65
2019-03-17T01:44:11.262Z,84.39
2019-03-17T01:45:11.252Z,84.50
2019-03-17T01:46:11.289Z,84.70
2019-03-17T01:47:11.228Z,83.37
2019-03-17T01:48:11.245Z,83.06
2019-03-17T01:49:11.225Z,85.01
2019-03-17T01:50:11.202Z,81.79
2019-03-17T01:51:11.192Z,82.14
2019-03-17T01:52:11.193Z,81.18
2019-03-17T01:53:11.162Z,82.55
2019-03-17T01:54:11.145Z,82.45
2019-03-17T01:55:11.158Z,82.14
2019-03-17T01:56:11.132Z,82.35
2019-03-17T01:57:11.138Z,81.01
2019-03-17T01:58:11.131Z,82.55
2019-03-17T01:59:11.138Z,83.17
2019-03-17T02:00:11.088Z,81.94
2019-03-17T02:01:12.026Z,82.96
2019-03-17T02:02:11.058Z,83.47
2019-03-17T02:03:11.045Z,84.91
2019-03-17T02:04:11.047Z,82.45
2019-03-17T02:05:21.410Z,84.50
2019-03-17T02:06:12.013Z,81.73
2019-03-17T02:07:11.005Z,82.55
2019-03-17T02:08:10.993Z,80.40
2019-03-17T02:09:10.978Z,83.58
2019-03-17T02:10:10.975Z,83.68
2019-03-17T02:11:10.977Z,82.76
2019-03-17T02:12:10.943Z,81.43
2019-03-17T02:13:10.933Z,83.37
2019-03-17T02:14:10.947Z,80.51
2019-03-17T02:15:10.939Z,81.43
2019-03-17T02:16:10.898Z,81.73
2019-03-17T02:17:10.890Z,82.35
2019-03-17T02:18:10.876Z,82.31
2019-03-17T02:19:10.867Z,82.45
2019-03-17T02:20:10.877Z,81.63
2019-03-17T02:21:10.841Z,82.35
2019-03-17T02:22:10.855Z,81.94
2019-03-17T02:23:10.846Z,82.96
2019-03-17T02:24:10.817Z,83.47
2019-03-17T02:25:10.797Z,81.73
2019-03-17T02:26:10.789Z,83.06
2019-03-17T02:27:10.795Z,83.78
2019-03-17T02:28:10.765Z,83.54
2019-03-17T02:29:10.766Z,83.58
2019-03-17T02:30:10.805Z,83.47
2019-03-17T02:31:10.731Z,82.35
2019-03-17T02:32:10.721Z,83.06
2019-03-17T02:33:10.729Z,83.98
2019-03-17T02:34:12.071Z,81.84
2019-03-17T02:35:10.701Z,81.01
2019-03-17T02:36:10.678Z,82.92
2019-03-17T02:37:10.673Z,82.24
2019-03-17T02:38:10.685Z,81.32
2019-03-17T02:39:10.640Z,82.96
2019-03-17T02:40:10.676Z,82.31
2019-03-17T02:41:10.619Z,81.79
2019-03-17T02:42:10.676Z,81.52
2019-03-17T02:43:10.595Z,80.91
2019-03-17T02:44:10.606Z,80.91
2019-03-17T02:45:10.607Z,80.71
2019-03-17T02:46:10.582Z,80.91
2019-03-17T02:47:10.577Z,81.52
2019-03-17T02:48:10.544Z,80.71
2019-03-17T02:49:10.531Z,80.46
2019-03-17T02:50:10.570Z,82.04
2019-03-17T02:51:10.506Z,82.51
2019-03-17T02:52:10.516Z,81.18
2019-03-17T02:53:10.582Z,82.24
2019-03-17T02:54:10.466Z,80.09
2019-03-17T02:55:10.513Z,80.46
2019-03-17T02:56:10.451Z,82.45
2019-03-17T02:57:10.438Z,82.24
2019-03-17T02:58:10.423Z,81.12
2019-03-17T02:59:10.428Z,80.40
2019-03-17T03:00:10.450Z,81.01
2019-03-17T03:01:10.394Z,80.51
2019-03-17T03:02:10.386Z,80.98
2019-03-17T03:03:10.378Z,80.40
2019-03-17T03:04:10.362Z,81.84
2019-03-17T03:05:10.362Z,81.01
2019-03-17T03:06:10.460Z,80.51
2019-03-17T03:07:10.342Z,80.60
2019-03-17T03:08:10.317Z,80.71
2019-03-17T03:09:10.331Z,79.17
2019-03-17T03:10:10.292Z,79.27
2019-03-17T03:11:10.294Z,77.94
2019-03-17T03:12:10.292Z,79.07
2019-03-17T03:13:10.270Z,76.31
2019-03-17T03:14:10.281Z,78.76
2019-03-17T03:15:10.235Z,78.05
2019-03-17T03:16:10.224Z,77.73
2019-03-17T03:17:10.212Z,77.43
2019-03-17T03:18:10.225Z,78.97
2019-03-17T03:19:10.232Z,77.94
2019-03-17T03:20:10.179Z,76.81
2019-03-17T03:21:10.173Z,78.05
2019-03-17T03:22:10.215Z,75.99
2019-03-17T03:23:10.154Z,77.64
2019-03-17T03:24:10.162Z,75.69
2019-03-17T03:25:10.134Z,77.12
2019-03-17T03:26:10.111Z,76.81
2019-03-17T03:27:10.104Z,77.53
2019-03-17T03:28:10.094Z,79.31
2019-03-17T03:29:10.087Z,78.97
2019-03-17T03:30:10.130Z,78.35
2019-03-17T03:31:10.064Z,77.43
2019-03-17T03:32:10.044Z,80.13
2019-03-17T03:33:10.041Z,79.41
2019-03-17T03:34:10.023Z,79.93
2019-03-17T03:35:10.127Z,80.13
2019-03-17T03:36:11.845Z,81.36
2019-03-17T03:37:09.990Z,80.64
2019-03-17T03:38:09.981Z,80.37
2019-03-17T03:39:09.961Z,80.58
2019-03-17T03:40:09.985Z,80.27
2019-03-17T03:41:09.937Z,80.47
2019-03-17T03:42:09.958Z,82.63
2019-03-17T03:43:09.918Z,81.60
2019-03-17T03:44:09.909Z,83.76
2019-03-17T03:45:09.929Z,84.41
2019-03-17T03:46:10.035Z,82.63
2019-03-17T03:47:09.872Z,84.78
2019-03-17T03:48:09.861Z,83.49
2019-03-17T03:49:09.863Z,84.41
2019-03-17T03:50:09.844Z,85.71
2019-03-17T03:51:09.830Z,84.68
2019-03-17T03:52:09.841Z,84.37
2019-03-17T03:53:09.817Z,84.68
2019-03-17T03:54:09.800Z,84.88
2019-03-17T03:55:09.784Z,84.88
2019-03-17T03:56:09.786Z,84.27
2019-03-17T03:57:09.768Z,84.37
2019-03-17T03:58:09.791Z,85.09
2019-03-17T03:59:09.740Z,83.14
2019-03-17T04:00:09.725Z,84.47
2019-03-17T04:01:09.723Z,84.37
2019-03-17T04:02:09.906Z,83.14
2019-03-17T04:03:09.704Z,84.37
2019-03-17T04:04:09.695Z,84.47
2019-03-17T04:05:09.779Z,84.37
2019-03-17T04:06:25.200Z,85.44
2019-03-17T04:07:10.678Z,83.28
2019-03-17T04:08:09.647Z,85.19
2019-03-17T04:09:09.636Z,85.54
2019-03-17T04:10:09.629Z,87.28
2019-03-17T04:11:09.613Z,86.77
2019-03-17T04:12:09.592Z,86.98
2019-03-17T04:13:09.606Z,86.57
2019-03-17T04:14:09.578Z,85.33
2019-03-17T04:15:09.565Z,84.25
2019-03-17T04:16:09.542Z,84.61
2019-03-17T04:17:09.532Z,85.33
2019-03-17T04:18:09.551Z,85.33
2019-03-17T04:19:09.526Z,84.92
2019-03-17T04:20:09.508Z,84.92
2019-03-17T04:21:09.488Z,83.39
2019-03-17T04:22:09.509Z,85.23
2019-03-17T04:23:09.489Z,85.85
2019-03-17T04:24:09.489Z,84.72
2019-03-17T04:25:09.449Z,84.52
2019-03-17T04:26:09.436Z,83.59
2019-03-17T04:27:09.418Z,83.49
2019-03-17T04:28:09.447Z,84.61
2019-03-17T04:29:09.395Z,82.87
2019-03-17T04:30:09.395Z,82.05
2019-03-17T04:31:09.380Z,83.18
2019-03-17T04:32:09.464Z,82.56
2019-03-17T04:33:09.361Z,81.23
2019-03-17T04:34:09.364Z,82.46
2019-03-17T04:35:09.338Z,82.67
2019-03-17T04:36:09.331Z,81.43
2019-03-17T04:37:09.310Z,82.36
2019-03-17T04:38:09.297Z,81.43
2019-03-17T04:39:09.292Z,82.36
2019-03-17T04:40:09.294Z,81.13
2019-03-17T04:41:09.263Z,83.32
2019-03-17T04:42:09.256Z,83.42
2019-03-17T04:43:09.239Z,83.39
2019-03-17T04:44:20.212Z,83.73
2019-03-17T04:45:10.254Z,83.63
2019-03-17T04:46:09.221Z,82.81
2019-03-17T04:47:09.236Z,84.96
2019-03-17T04:48:09.366Z,85.21
2019-03-17T04:49:09.206Z,85.99
2019-03-17T04:50:09.161Z,85.52
2019-03-17T04:51:09.158Z,85.93
2019-03-17T04:52:09.138Z,85.82
2019-03-17T04:53:09.138Z,87.57
2019-03-17T04:54:09.131Z,87.46
2019-03-17T04:55:09.133Z,87.37
2019-03-17T04:56:09.102Z,88.08
2019-03-17T04:57:09.111Z,88.95
2019-03-17T04:58:09.074Z,88.02
2019-03-17T04:59:09.063Z,89.66
2019-03-17T05:00:09.054Z,89.04
2019-03-17T05:01:09.049Z,88.84
2019-03-17T05:02:09.032Z,89.70
2019-03-17T05:03:09.039Z,90.59
2019-03-17T05:04:09.012Z,90.53
2019-03-17T05:05:09.023Z,90.83
2019-03-17T05:06:08.984Z,90.53
2019-03-17T05:07:08.978Z,91.14
2019-03-17T05:08:08.967Z,90.32
2019-03-17T05:09:08.953Z,91.45
2019-03-17T05:10:08.969Z,91.45
2019-03-17T05:11:08.930Z,91.25
2019-03-17T05:12:08.982Z,91.76
2019-03-17T05:13:08.907Z,91.25
2019-03-17T05:14:08.893Z,92.38
2019-03-17T05:15:08.909Z,92.01
2019-03-17T05:16:08.876Z,92.27
2019-03-17T05:17:09.566Z,91.86
2019-03-17T05:18:08.850Z,92.11
2019-03-17T05:19:08.838Z,91.91
2019-03-17T05:20:08.846Z,92.32
2019-03-17T05:21:08.822Z,92.93
2019-03-17T05:22:08.806Z,92.42
2019-03-17T05:23:08.807Z,92.32
2019-03-17T05:24:08.797Z,93.14
2019-03-17T05:25:08.793Z,92.83
2019-03-17T05:26:08.792Z,93.14
2019-03-17T05:27:08.759Z,93.14
2019-03-17T05:28:08.777Z,93.76
2019-03-17T05:29:08.732Z,93.14
2019-03-17T05:30:08.719Z,93.55
2019-03-17T05:31:08.754Z,93.14
2019-03-17T05:32:08.702Z,93.04
2019-03-17T05:33:08.711Z,92.42
2019-03-17T05:34:08.673Z,93.14
2019-03-17T05:35:08.677Z,93.04
2019-03-17T05:36:08.651Z,93.04
2019-03-17T05:37:08.659Z,93.55
2019-03-17T05:38:08.631Z,93.24
2019-03-17T05:39:08.640Z,93.44
2019-03-17T05:40:08.618Z,93.55
2019-03-17T05:41:08.595Z,93.04
2019-03-17T05:42:08.607Z,93.44
2019-03-17T05:43:08.577Z,93.44
2019-03-17T05:44:08.704Z,93.55
2019-03-17T05:45:08.555Z,93.65
2019-03-17T05:46:08.561Z,93.35
2019-03-17T05:47:08.526Z,93.86
2019-03-17T05:48:08.546Z,93.65
2019-03-17T05:49:08.526Z,93.44
2019-03-17T05:50:08.498Z,93.35
2019-03-17T05:51:08.492Z,93.24
2019-03-17T05:52:08.478Z,93.65
2019-03-17T05:53:08.484Z,94.01
2019-03-17T05:54:08.453Z,94.37
2019-03-17T05:55:08.487Z,94.21
2019-03-17T05:56:08.436Z,93.90
2019-03-17T05:57:08.419Z,93.90
2019-03-17T05:58:08.414Z,94.11
2019-03-17T05:59:08.419Z,95.14
2019-03-17T06:00:08.388Z,95.08
2019-03-17T06:01:08.370Z,94.52
2019-03-17T06:02:08.373Z,94.56
2019-03-17T06:03:08.353Z,95.24
2019-03-17T06:04:08.356Z,94.98
2019-03-17T06:05:08.355Z,95.49
2019-03-17T06:06:08.345Z,95.28
2019-03-17T06:07:18.032Z,95.14
2019-03-17T06:08:09.299Z,94.77
2019-03-17T06:09:08.286Z,95.49
2019-03-17T06:10:08.289Z,94.87
2019-03-17T06:11:08.360Z,95.55
2019-03-17T06:12:08.264Z,95.49
2019-03-17T06:13:08.236Z,94.87
2019-03-17T06:14:08.295Z,95.18
2019-03-17T06:15:08.217Z,95.28
2019-03-17T06:16:08.226Z,96.11
2019-03-17T06:17:08.224Z,95.90
2019-03-17T06:18:08.270Z,95.90
2019-03-17T06:19:08.169Z,96.42
2019-03-17T06:20:08.169Z,96.31
2019-03-17T06:21:08.182Z,96.21
2019-03-17T06:22:08.141Z,96.31
2019-03-17T06:23:08.129Z,95.90
2019-03-17T06:24:08.247Z,96.42
2019-03-17T06:25:08.158Z,96.42
2019-03-17T06:26:08.137Z,96.00
2019-03-17T06:27:08.122Z,96.42
2019-03-17T06:28:08.073Z,96.31
2019-03-17T06:29:08.063Z,96.31
2019-03-17T06:30:08.051Z,97.03
2019-03-17T06:31:08.056Z,97.03
2019-03-17T06:32:08.032Z,97.14
2019-03-17T06:33:08.029Z,96.93
2019-03-17T06:34:08.023Z,97.44
2019-03-17T06:35:08.003Z,96.83
2019-03-17T06:36:08.023Z,97.34
2019-03-17T06:37:07.972Z,97.34
2019-03-17T06:38:07.963Z,97.65
2019-03-17T06:39:07.951Z,97.14
2019-03-17T06:40:08.055Z,97.55
2019-03-17T06:41:07.951Z,97.14
2019-03-17T06:42:07.917Z,97.44
2019-03-17T06:43:07.906Z,97.03
2019-03-17T06:44:07.893Z,97.03
2019-03-17T06:45:07.894Z,96.93
2019-03-17T06:46:07.870Z,97.08
2019-03-17T06:47:07.924Z,97.03
2019-03-17T06:48:07.957Z,96.83
2019-03-17T06:49:07.851Z,97.14
2019-03-17T06:50:07.828Z,97.69
2019-03-17T06:51:07.821Z,97.34
2019-03-17T06:52:07.833Z,97.39
2019-03-17T06:53:07.795Z,97.69
2019-03-17T06:54:07.787Z,97.90
2019-03-17T06:55:07.774Z,98.11
2019-03-17T06:56:07.757Z,97.90
2019-03-17T06:57:07.776Z,98.32
2019-03-17T06:58:07.739Z,98.21
2019-03-17T06:59:07.728Z,98.11
2019-03-17T07:00:07.719Z,97.90
2019-03-17T07:01:07.744Z,98.11
2019-03-17T07:02:07.732Z,98.11
2019-03-17T07:03:07.687Z,97.90
2019-03-17T07:04:07.674Z,97.39
2019-03-17T07:05:07.671Z,97.69
2019-03-17T07:06:07.655Z,97.60
2019-03-17T07:07:07.731Z,98.00
2019-03-17T07:08:07.672Z,97.60
2019-03-17T07:09:07.640Z,97.90
2019-03-17T07:10:07.635Z,98.21
2019-03-17T07:11:07.630Z,97.39
2019-03-17T07:12:07.598Z,97.39
2019-03-17T07:13:07.603Z,97.49
2019-03-17T07:14:07.570Z,97.49
2019-03-17T07:15:07.582Z,97.55
2019-03-17T07:16:07.542Z,96.97
2019-03-17T07:17:07.529Z,97.08
2019-03-17T07:18:07.519Z,96.72
2019-03-17T07:19:07.563Z,97.34
2019-03-17T07:20:07.502Z,97.18
2019-03-17T07:21:07.486Z,97.08
2019-03-17T07:22:07.474Z,97.60
2019-03-17T07:23:07.493Z,97.08
2019-03-17T07:24:07.478Z,97.14
2019-03-17T07:25:07.446Z,97.08
2019-03-17T07:26:07.434Z,97.60
2019-03-17T07:27:07.419Z,97.69
2019-03-17T07:28:07.416Z,97.18
2019-03-17T07:29:07.404Z,97.49
2019-03-17T07:30:07.670Z,97.69
2019-03-17T07:31:07.527Z,98.11
2019-03-17T07:32:07.370Z,98.06
2019-03-17T07:33:07.377Z,98.62
2019-03-17T07:34:07.376Z,98.93
2019-03-17T07:35:07.363Z,96.20
2019-03-17T07:36:07.319Z,94.80
2019-03-17T07:37:07.319Z,93.91
2019-03-17T07:38:07.301Z,94.68
2019-03-17T07:39:12.172Z,94.21
2019-03-17T07:40:08.308Z,94.93
2019-03-17T07:41:07.272Z,95.59
2019-03-17T07:42:07.252Z,96.11
2019-03-17T07:43:07.251Z,96.73
2019-03-17T07:44:07.239Z,96.56
2019-03-17T07:45:07.224Z,97.19
2019-03-17T07:46:07.249Z,97.60
2019-03-17T07:47:07.204Z,97.08
2019-03-17T07:48:07.192Z,98.37
2019-03-17T07:49:07.182Z,98.63
2019-03-17T07:50:07.186Z,98.47
2019-03-17T07:51:07.158Z,98.63
2019-03-17T07:52:07.167Z,98.37
2019-03-17T07:53:07.133Z,98.16
2019-03-17T07:54:07.127Z,98.43
2019-03-17T07:55:07.116Z,98.22
2019-03-17T07:56:07.134Z,97.91
2019-03-17T07:57:07.117Z,96.88
2019-03-17T07:58:07.078Z,96.26
2019-03-17T07:59:07.128Z,96.82
2019-03-17T08:00:07.099Z,96.15
2019-03-17T08:01:07.049Z,96.36
2019-03-17T08:02:07.035Z,96.47
2019-03-17T08:03:07.023Z,96.92
2019-03-17T08:04:07.007Z,97.08
2019-03-17T08:05:07.023Z,97.71
2019-03-17T08:06:07.105Z,97.60
2019-03-17T08:07:06.986Z,96.88
2019-03-17T08:08:09.747Z,97.50
2019-03-17T08:09:06.965Z,97.29
2019-03-17T08:10:06.951Z,97.29
2019-03-17T08:11:06.945Z,97.81
2019-03-17T08:12:06.920Z,97.08
2019-03-17T08:13:06.931Z,97.60
2019-03-17T08:14:07.016Z,96.77
2019-03-17T08:15:06.891Z,96.88
2019-03-17T08:16:06.889Z,97.81
2019-03-17T08:17:06.874Z,97.91
2019-03-17T08:18:06.871Z,98.01
2019-03-17T08:19:06.880Z,98.63
2019-03-17T08:20:06.843Z,98.63
2019-03-17T08:21:06.827Z,98.43
2019-03-17T08:22:06.814Z,98.49
2019-03-17T08:23:06.814Z,98.58
2019-03-17T08:24:06.790Z,98.18
2019-03-17T08:25:06.813Z,98.18
2019-03-17T08:26:06.771Z,98.49
2019-03-17T08:27:06.767Z,98.18
2019-03-17T08:28:06.782Z,98.07
2019-03-17T08:29:06.769Z,98.58
2019-03-17T08:30:06.736Z,97.66
2019-03-17T08:31:06.741Z,97.97
2019-03-17T08:32:06.699Z,97.09
2019-03-17T08:33:06.695Z,96.83
2019-03-17T08:34:06.709Z,96.48
2019-03-17T08:35:06.678Z,96.52
2019-03-17T08:36:06.665Z,96.06
2019-03-17T08:37:06.645Z,95.76
2019-03-17T08:38:06.635Z,95.96
2019-03-17T08:39:06.638Z,96.17
2019-03-17T08:40:06.619Z,96.69
2019-03-17T08:41:06.602Z,96.48
2019-03-17T08:42:06.597Z,96.69
2019-03-17T08:43:06.631Z,95.45
2019-03-17T08:44:06.568Z,94.93
2019-03-17T08:45:06.550Z,94.82
2019-03-17T08:46:06.636Z,95.45
2019-03-17T08:47:06.529Z,94.72
2019-03-17T08:48:06.520Z,95.03
2019-03-17T08:49:06.550Z,94.62
2019-03-17T08:50:06.542Z,94.42
2019-03-17T08:51:06.491Z,95.14
2019-03-17T08:52:06.481Z,95.14
2019-03-17T08:53:06.464Z,95.30
2019-03-17T08:54:06.447Z,94.31
2019-03-17T08:55:06.466Z,95.34
2019-03-17T08:56:06.436Z,95.24
2019-03-17T08:57:06.417Z,94.52
2019-03-17T08:58:06.410Z,93.75
2019-03-17T08:59:06.400Z,93.90
2019-03-17T09:00:06.396Z,93.85
2019-03-17T09:01:06.409Z,94.27
2019-03-17T09:02:06.367Z,94.06
2019-03-17T09:03:06.356Z,94.27
2019-03-17T09:04:06.355Z,94.47
2019-03-17T09:05:06.362Z,93.81
2019-03-17T09:06:06.317Z,92.16
2019-03-17T09:07:06.353Z,93.71
2019-03-17T09:08:06.294Z,93.13
2019-03-17T09:09:06.294Z,92.37
2019-03-17T09:10:06.335Z,92.16
2019-03-17T09:11:06.282Z,92.27
2019-03-17T09:12:06.293Z,92.84
2019-03-17T09:13:06.236Z,92.63
2019-03-17T09:14:06.235Z,93.77
2019-03-17T09:15:06.222Z,93.87
2019-03-17T09:16:06.211Z,93.66
2019-03-17T09:17:14.196Z,93.66
2019-03-17T09:18:07.225Z,93.98
2019-03-17T09:19:06.172Z,94.13
2019-03-17T09:20:06.173Z,94.45
2019-03-17T09:21:06.171Z,95.17
2019-03-17T09:22:06.141Z,94.24
2019-03-17T09:23:06.123Z,94.60
2019-03-17T09:24:16.660Z,94.34
2019-03-17T09:25:07.102Z,94.92
2019-03-17T09:26:06.176Z,93.58
2019-03-17T09:27:06.079Z,94.09
2019-03-17T09:28:06.067Z,94.09
2019-03-17T09:29:06.169Z,94.40
2019-03-17T09:30:06.082Z,94.40
2019-03-17T09:31:07.538Z,93.58
2019-03-17T09:32:06.023Z,93.68
2019-03-17T09:33:06.020Z,93.58
2019-03-17T09:34:06.038Z,92.24
2019-03-17T09:35:06.018Z,92.96
2019-03-17T09:36:05.995Z,92.65
2019-03-17T09:37:06.010Z,92.55
2019-03-17T09:38:05.999Z,93.16
2019-03-17T09:39:05.953Z,93.27
2019-03-17T09:40:05.935Z,93.99
2019-03-17T09:41:05.937Z,93.33
2019-03-17T09:42:05.916Z,92.61
2019-03-17T09:43:05.938Z,91.99
2019-03-17T09:44:05.928Z,91.78
2019-03-17T09:45:05.885Z,91.47
2019-03-17T09:46:05.874Z,92.46
2019-03-17T09:47:05.855Z,91.64
2019-03-17T09:48:05.845Z,90.51
2019-03-17T09:49:05.867Z,89.58
2019-03-17T09:50:05.826Z,87.52
2019-03-17T09:51:05.829Z,88.14
2019-03-17T09:52:05.801Z,88.24
2019-03-17T09:53:05.803Z,85.94
2019-03-17T09:54:05.789Z,86.50
2019-03-17T09:55:05.798Z,86.56
2019-03-17T09:56:05.758Z,84.61
2019-03-17T09:57:05.753Z,85.74
2019-03-17T09:58:05.748Z,86.56
2019-03-17T09:59:05.728Z,85.43
2019-03-17T10:00:05.721Z,86.25
2019-03-17T10:01:05.736Z,87.28
2019-03-17T10:02:05.717Z,86.15
2019-03-17T10:03:05.689Z,85.53
2019-03-17T10:04:05.667Z,83.68
2019-03-17T10:05:05.660Z,83.58
2019-03-17T10:06:05.830Z,84.71
2019-03-17T10:07:05.639Z,85.02
2019-03-17T10:08:05.629Z,84.81
2019-03-17T10:09:06.635Z,83.68
2019-03-17T10:10:05.605Z,84.71
2019-03-17T10:11:05.607Z,83.17
2019-03-17T10:12:05.636Z,82.86
2019-03-17T10:13:05.594Z,82.79
2019-03-17T10:14:05.560Z,84.54
2019-03-17T10:15:05.551Z,86.50
2019-03-17T10:16:05.538Z,84.44
2019-03-17T10:17:05.532Z,85.47
2019-03-17T10:18:05.542Z,86.60
2019-03-17T10:19:05.509Z,84.79
2019-03-17T10:20:05.531Z,85.51
2019-03-17T10:21:05.493Z,86.37
2019-03-17T10:22:05.473Z,87.09
2019-03-17T10:23:05.497Z,87.34
2019-03-17T10:24:05.444Z,88.20
2019-03-17T10:25:05.528Z,88.62
2019-03-17T10:26:05.428Z,89.56
2019-03-17T10:27:05.417Z,91.05
2019-03-17T10:28:05.414Z,89.48
2019-03-17T10:29:05.421Z,88.90
2019-03-17T10:30:05.385Z,90.56
2019-03-17T10:31:05.374Z,92.00
2019-03-17T10:32:05.384Z,92.87
2019-03-17T10:33:05.369Z,93.04
2019-03-17T10:34:05.344Z,93.87
2019-03-17T10:35:05.450Z,93.76
2019-03-17T10:36:05.318Z,94.69
2019-03-17T10:37:05.326Z,94.38
2019-03-17T10:38:05.295Z,94.48
2019-03-17T10:39:12.497Z,94.85
2019-03-17T10:40:06.272Z,95.48
2019-03-17T10:41:05.303Z,94.60
2019-03-17T10:42:05.248Z,93.47
2019-03-17T10:43:05.246Z,93.47
2019-03-17T10:44:05.222Z,93.88
2019-03-17T10:45:05.221Z,94.92
2019-03-17T10:46:05.203Z,93.88
2019-03-17T10:47:05.233Z,94.60
2019-03-17T10:48:05.187Z,93.98
2019-03-17T10:49:05.316Z,93.78
2019-03-17T10:50:05.170Z,93.88
2019-03-17T10:51:05.156Z,94.29
2019-03-17T10:52:05.137Z,93.84
2019-03-17T10:53:05.165Z,93.59
2019-03-17T10:54:05.116Z,94.31
2019-03-17T10:55:05.105Z,94.52
2019-03-17T10:56:05.104Z,94.78
2019-03-17T10:57:05.093Z,94.27
2019-03-17T10:58:05.082Z,94.12
2019-03-17T10:59:05.090Z,93.85
2019-03-17T11:00:05.057Z,93.56
2019-03-17T11:01:05.045Z,92.74
2019-03-17T11:02:05.064Z,92.74
2019-03-17T11:03:05.022Z,91.91
2019-03-17T11:04:05.003Z,91.97
2019-03-17T11:05:04.994Z,91.66
2019-03-17T11:06:04.983Z,92.49
2019-03-17T11:07:04.972Z,93.37
2019-03-17T11:08:05.025Z,91.52
2019-03-17T11:09:04.958Z,90.96
2019-03-17T11:10:04.935Z,91.38
2019-03-17T11:11:04.933Z,91.02
2019-03-17T11:12:04.920Z,90.41
2019-03-17T11:13:04.906Z,91.23
2019-03-17T11:14:04.930Z,91.33
2019-03-17T11:15:04.911Z,91.49
2019-03-17T11:16:04.876Z,91.29
2019-03-17T11:17:04.866Z,89.03
2019-03-17T11:18:04.856Z,89.44
2019-03-17T11:19:04.836Z,89.13
2019-03-17T11:20:04.825Z,89.23
2019-03-17T11:21:04.841Z,85.36
2019-03-17T11:22:04.806Z,83.55
2019-03-17T11:23:04.795Z,83.90
2019-03-17T11:24:04.778Z,84.66
2019-03-17T11:25:04.808Z,82.43
2019-03-17T11:26:04.760Z,83.09
2019-03-17T11:27:04.748Z,84.84
2019-03-17T11:28:04.735Z,86.18
2019-03-17T11:29:04.730Z,86.49
2019-03-17T11:30:04.713Z,86.22
2019-03-17T11:31:04.735Z,87.01
2019-03-17T11:32:06.585Z,88.86
2019-03-17T11:33:04.697Z,88.76
2019-03-17T11:34:04.678Z,89.23
2019-03-17T11:35:04.657Z,87.48
2019-03-17T11:36:04.653Z,87.79
2019-03-17T11:37:04.666Z,88.41
2019-03-17T11:38:04.623Z,89.13
2019-03-17T11:39:04.614Z,88.26
2019-03-17T11:40:04.600Z,89.29
2019-03-17T11:41:04.593Z,86.93
2019-03-17T11:42:04.583Z,87.44
2019-03-17T11:43:04.593Z,88.23
2019-03-17T11:44:04.566Z,89.56
2019-03-17T11:45:04.586Z,88.49
2019-03-17T11:46:04.541Z,87.26
2019-03-17T11:47:04.563Z,84.99
2019-03-17T11:48:04.515Z,84.99
2019-03-17T11:49:04.501Z,85.36
2019-03-17T11:50:04.495Z,87.73
2019-03-17T11:51:04.602Z,85.57
2019-03-17T11:52:04.481Z,81.56
2019-03-17T11:53:04.479Z,81.73
2019-03-17T11:54:04.453Z,82.65
2019-03-17T11:55:04.438Z,81.93
2019-03-17T11:56:04.452Z,80.39
2019-03-17T11:57:04.425Z,79.36
2019-03-17T11:58:04.405Z,79.16
2019-03-17T11:59:04.389Z,80.29
2019-03-17T12:00:04.384Z,77.51
2019-03-17T12:01:04.394Z,78.23
2019-03-17T12:02:04.373Z,77.17
2019-03-17T12:03:04.444Z,78.54
2019-03-17T12:04:04.339Z,77.68
2019-03-17T12:05:04.323Z,77.48
2019-03-17T12:06:04.364Z,77.48
2019-03-17T12:07:04.304Z,76.35
2019-03-17T12:08:04.291Z,75.63
2019-03-17T12:09:04.606Z,74.70
2019-03-17T12:10:04.312Z,73.64
2019-03-17T12:11:04.265Z,76.62
2019-03-17T12:12:04.315Z,75.38
2019-03-17T12:13:04.239Z,75.29
2019-03-17T12:14:04.234Z,76.62
2019-03-17T12:15:04.232Z,75.70
2019-03-17T12:16:04.209Z,75.08
2019-03-17T12:17:04.186Z,74.77
2019-03-17T12:18:04.200Z,76.07
2019-03-17T12:19:04.168Z,78.36
2019-03-17T12:20:04.166Z,75.76
2019-03-17T12:21:04.180Z,72.78
2019-03-17T12:22:09.169Z,74.63
2019-03-17T12:23:05.205Z,73.10
2019-03-17T12:24:04.111Z,72.78
2019-03-17T12:25:04.094Z,73.61
2019-03-17T12:26:04.126Z,72.89
2019-03-17T12:27:04.182Z,76.24
2019-03-17T12:28:04.074Z,75.01
2019-03-17T12:29:04.069Z,74.91
2019-03-17T12:30:04.050Z,70.60
2019-03-17T12:31:04.646Z,72.99
2019-03-17T12:32:04.026Z,74.49
2019-03-17T12:33:04.029Z,72.17
2019-03-17T12:34:04.032Z,72.89
2019-03-17T12:35:04.029Z,74.46
2019-03-17T12:36:03.983Z,74.87
2019-03-17T12:37:03.975Z,73.64
2019-03-17T12:38:03.964Z,71.11
2019-03-17T12:39:03.950Z,71.21
2019-03-17T12:40:03.938Z,71.75
2019-03-17T12:41:03.969Z,73.30
2019-03-17T12:42:03.918Z,72.99
2019-03-17T12:43:03.908Z,73.13
2019-03-17T12:44:03.899Z,73.23
2019-03-17T12:45:03.874Z,72.99
2019-03-17T12:46:03.866Z,71.96
2019-03-17T12:47:03.932Z,73.09
2019-03-17T12:48:03.858Z,73.44
2019-03-17T12:49:03.845Z,72.85
2019-03-17T12:50:03.822Z,68.65
2019-03-17T12:51:03.814Z,71.11
2019-03-17T12:52:03.802Z,69.09